createdAt,value
2018-07-19T00:00:45.385Z,18.63
2018-07-19T00:05:48.489Z,18.70
2018-07-19T00:10:51.622Z,18.47
2018-07-19T00:15:54.786Z,18.42
2018-07-19T00:20:58.105Z,18.40
2018-07-19T00:26:01.341Z,18.29
2018-07-19T00:31:04.505Z,18.26
2018-07-19T00:36:07.858Z,18.10
2018-07-19T00:41:11.052Z,18.21
2018-07-19T00:46:14.193Z,18.08
2018-07-19T00:51:17.380Z,17.98
2018-07-19T00:56:20.543Z,18.08
2018-07-19T01:01:23.660Z,17.97
2018-07-19T01:06:26.814Z,17.87
2018-07-19T01:11:29.961Z,17.70
2018-07-19T01:16:33.088Z,17.56
2018-07-19T01:21:36.316Z,17.52
2018-07-19T01:26:39.460Z,17.40
2018-07-19T01:31:42.637Z,17.34
2018-07-19T01:36:47.904Z,17.36
2018-07-19T01:42:29.632Z,17.44
2018-07-19T01:47:32.739Z,17.31
2018-07-19T01:52:35.925Z,17.08
2018-07-19T01:57:39.011Z,17.05
2018-07-19T02:02:42.115Z,17.02
2018-07-19T02:07:45.229Z,16.96
2018-07-19T02:12:48.314Z,16.98
2018-07-19T02:17:51.423Z,17.03
2018-07-19T02:22:54.539Z,16.95
2018-07-19T02:27:57.757Z,16.85
2018-07-19T02:33:00.885Z,16.71
2018-07-19T02:38:04.074Z,16.58
2018-07-19T02:43:07.200Z,16.50
2018-07-19T02:48:10.363Z,16.49
2018-07-19T02:53:13.414Z,16.48
2018-07-19T02:58:16.570Z,16.41
2018-07-19T03:03:19.712Z,16.40
2018-07-19T03:08:22.950Z,16.25
2018-07-19T03:13:26.925Z,16.22
2018-07-19T03:18:30.167Z,16.12
2018-07-19T03:23:33.404Z,16.18
2018-07-19T03:28:36.540Z,16.19
2018-07-19T03:33:39.661Z,16.37
2018-07-19T03:38:42.780Z,16.37
2018-07-19T03:43:45.877Z,16.41
2018-07-19T03:48:48.977Z,16.58
2018-07-19T03:53:52.088Z,16.83
2018-07-19T03:58:55.265Z,17.08
2018-07-19T04:03:58.452Z,17.42
2018-07-19T04:09:01.645Z,17.28
2018-07-19T04:14:04.905Z,17.37
2018-07-19T04:19:07.989Z,17.45
2018-07-19T04:24:11.055Z,17.53
2018-07-19T04:29:14.196Z,17.74
2018-07-19T04:34:17.313Z,18.29
2018-07-19T04:39:20.474Z,21.82
2018-07-19T04:44:23.605Z,23.85
2018-07-19T04:49:27.610Z,24.01
2018-07-19T04:54:30.863Z,25.57
2018-07-19T04:59:34.101Z,27.40
2018-07-19T05:04:37.510Z,25.66
2018-07-19T05:11:37.177Z,28.03
2018-07-19T05:16:40.383Z,28.91
2018-07-19T05:21:43.544Z,27.68
2018-07-19T05:26:46.680Z,28.72
2018-07-19T05:31:49.875Z,29.08
2018-07-19T05:36:53.065Z,28.19
2018-07-19T05:41:56.289Z,28.81
2018-07-19T05:46:59.496Z,30.03
2018-07-19T05:52:02.707Z,30.33
2018-07-19T05:57:05.863Z,28.88
2018-07-19T06:02:09.104Z,29.87
2018-07-19T06:07:12.321Z,30.31
2018-07-19T06:12:15.430Z,31.04
2018-07-19T06:17:18.583Z,32.31
2018-07-19T06:22:21.763Z,31.68
2018-07-19T06:27:24.979Z,32.47
2018-07-19T06:32:28.222Z,30.61
2018-07-19T06:37:31.450Z,32.27
2018-07-19T06:42:34.708Z,30.74
2018-07-19T06:47:37.864Z,31.99
2018-07-19T06:52:41.075Z,32.07
2018-07-19T06:57:44.187Z,31.89
2018-07-19T07:02:51.388Z,32.72
2018-07-19T07:07:54.939Z,33.14
2018-07-19T07:12:58.213Z,32.00
2018-07-19T07:18:01.528Z,31.48
2018-07-19T07:23:04.797Z,32.35
2018-07-19T07:28:20.646Z,32.73
2018-07-19T07:33:23.769Z,32.28
2018-07-19T07:38:27.037Z,27.87
2018-07-19T07:43:30.358Z,26.80
2018-07-19T07:48:33.530Z,25.95
2018-07-19T07:58:45.971Z,26.57
2018-07-19T08:03:58.365Z,26.42
2018-07-19T08:09:02.173Z,25.90
2018-07-19T08:14:05.277Z,27.90
2018-07-19T08:19:08.372Z,28.45
2018-07-19T08:24:11.615Z,31.25
2018-07-19T08:29:14.787Z,32.36
2018-07-19T08:34:17.912Z,31.40
2018-07-19T08:39:21.127Z,30.20
2018-07-19T08:44:27.315Z,29.88
2018-07-19T08:49:30.479Z,29.74
2018-07-19T08:54:35.747Z,32.02
2018-07-19T08:59:40.154Z,31.20
2018-07-19T09:04:43.332Z,31.35
2018-07-19T09:09:46.558Z,32.38
2018-07-19T09:14:49.692Z,31.33
2018-07-19T09:19:53.036Z,29.16
2018-07-19T09:24:56.151Z,27.47
2018-07-19T09:29:59.306Z,26.37
2018-07-19T09:35:02.565Z,26.40
2018-07-19T09:40:05.760Z,26.20
2018-07-19T09:45:08.999Z,25.35
2018-07-19T09:50:12.259Z,24.86
2018-07-19T09:55:15.638Z,24.13
2018-07-19T10:00:19.464Z,23.74
2018-07-19T10:05:22.593Z,23.96
2018-07-19T10:10:25.685Z,23.95
2018-07-19T10:15:29.161Z,23.87
2018-07-19T10:20:32.323Z,23.81
2018-07-19T10:25:35.604Z,23.91
2018-07-19T10:30:38.860Z,23.81
2018-07-19T10:35:44.159Z,24.59
2018-07-19T10:40:47.353Z,25.56
2018-07-19T10:45:50.780Z,26.73
2018-07-19T10:50:53.940Z,26.06
2018-07-19T10:55:57.060Z,25.48
2018-07-19T11:01:00.293Z,25.28
2018-07-19T11:06:03.634Z,24.98
2018-07-19T11:11:07.055Z,25.43
2018-07-19T11:16:10.267Z,26.18
2018-07-19T11:21:17.594Z,27.26
2018-07-19T11:26:20.699Z,27.89
2018-07-19T11:31:23.898Z,26.45
2018-07-19T11:36:27.069Z,25.99
2018-07-19T11:41:30.222Z,26.40
2018-07-19T11:46:33.490Z,27.54
2018-07-19T11:51:36.839Z,28.36
2018-07-19T11:56:40.074Z,29.45
2018-07-19T12:01:43.379Z,30.13
2018-07-19T12:06:46.543Z,29.77
2018-07-19T12:11:49.691Z,30.00
2018-07-19T12:16:52.824Z,29.75
2018-07-19T12:21:56.018Z,29.97
2018-07-19T12:26:59.164Z,29.87
2018-07-19T12:32:02.499Z,29.04
2018-07-19T12:37:05.733Z,28.48
2018-07-19T12:42:09.035Z,29.96
2018-07-19T12:47:12.208Z,29.38
2018-07-19T12:52:15.352Z,29.71
2018-07-19T12:57:18.756Z,29.41
2018-07-19T13:02:22.102Z,29.30
2018-07-19T13:07:25.535Z,29.96
2018-07-19T13:12:28.827Z,29.62
2018-07-19T13:17:32.203Z,30.18
2018-07-19T13:22:35.378Z,29.62
2018-07-19T13:27:38.618Z,30.27
2018-07-19T13:32:41.732Z,30.40
2018-07-19T13:37:44.916Z,29.88
2018-07-19T13:42:48.168Z,29.47
2018-07-19T13:47:51.409Z,27.74
2018-07-19T13:53:28.197Z,27.53
2018-07-19T13:58:31.428Z,27.53
2018-07-19T14:03:34.850Z,28.15
2018-07-19T14:08:38.155Z,27.01
2018-07-19T14:13:41.321Z,27.63
2018-07-19T14:18:44.467Z,28.58
2018-07-19T14:28:30.177Z,28.66
2018-07-19T14:33:33.559Z,28.05
2018-07-19T14:38:36.864Z,28.77
2018-07-19T14:45:09.037Z,28.87
2018-07-19T14:50:18.313Z,29.11
2018-07-19T14:55:27.854Z,28.93
2018-07-19T15:01:29.850Z,29.02
2018-07-19T15:06:38.477Z,29.74
2018-07-19T15:11:47.700Z,29.80
2018-07-19T15:16:57.298Z,28.99
2018-07-19T15:22:06.625Z,29.46
2018-07-19T15:27:15.575Z,28.98
2018-07-19T15:32:24.611Z,29.13
2018-07-19T15:37:33.958Z,30.32
2018-07-19T15:42:43.314Z,31.42
2018-07-19T15:47:52.020Z,31.35
2018-07-19T15:53:00.931Z,31.15
2018-07-19T15:58:10.656Z,31.30
2018-07-19T16:03:20.231Z,30.18
2018-07-19T16:08:29.612Z,31.00
2018-07-19T16:13:38.347Z,29.59
2018-07-19T16:18:47.144Z,30.06
2018-07-19T16:23:56.310Z,30.12
2018-07-19T16:29:05.166Z,29.83
2018-07-19T16:34:13.839Z,29.17
2018-07-19T16:39:22.860Z,29.01
2018-07-19T16:44:31.776Z,29.30
2018-07-19T16:49:41.069Z,29.23
2018-07-19T16:54:50.150Z,29.01
2018-07-19T16:59:59.586Z,28.74
2018-07-19T17:05:08.526Z,28.69
2018-07-19T17:10:17.949Z,28.54
2018-07-19T17:15:27.201Z,28.80
2018-07-19T17:20:36.640Z,29.03
2018-07-19T17:25:45.365Z,28.10
2018-07-19T17:30:54.433Z,27.74
2018-07-19T17:36:03.735Z,27.64
2018-07-19T17:41:12.702Z,27.51
2018-07-19T17:46:21.890Z,27.43
2018-07-19T17:51:31.126Z,27.39
2018-07-19T17:56:40.516Z,26.87
2018-07-19T18:01:49.802Z,26.78
2018-07-19T18:06:58.331Z,26.88
2018-07-19T18:12:07.780Z,26.75
2018-07-19T18:17:17.176Z,26.22
2018-07-19T18:22:26.719Z,26.15
2018-07-19T18:27:36.066Z,26.05
2018-07-19T18:32:45.174Z,25.70
2018-07-19T18:37:56.520Z,25.61
2018-07-19T18:43:06.011Z,25.29
2018-07-19T18:48:15.287Z,24.87
2018-07-19T18:53:24.844Z,24.72
2018-07-19T18:58:34.064Z,24.38
2018-07-19T19:03:43.577Z,24.06
2018-07-19T19:08:53.131Z,23.81
2018-07-19T19:14:02.894Z,23.58
2018-07-19T19:19:12.036Z,23.30
2018-07-19T19:24:23.282Z,22.96
2018-07-19T19:29:32.439Z,22.72
2018-07-19T19:34:41.617Z,22.45
2018-07-19T19:39:50.771Z,22.14
2018-07-19T19:45:00.313Z,22.01
2018-07-19T19:50:09.225Z,21.77
2018-07-19T19:55:18.527Z,21.39
2018-07-19T20:00:27.954Z,21.16
2018-07-19T20:05:37.445Z,20.80
2018-07-19T20:10:46.604Z,20.77
2018-07-19T20:15:55.940Z,20.57
2018-07-19T20:21:05.320Z,20.45
2018-07-19T20:26:17.752Z,20.02
2018-07-19T20:31:27.018Z,19.77
2018-07-19T20:42:03.729Z,19.28
2018-07-19T20:47:12.511Z,18.97
2018-07-19T20:52:21.939Z,18.71
2018-07-19T20:57:31.673Z,18.43
2018-07-19T21:02:42.864Z,18.10
2018-07-19T21:07:52.402Z,17.85
2018-07-19T21:13:01.412Z,17.56
2018-07-19T21:18:10.320Z,17.38
2018-07-19T21:23:19.545Z,17.17
2018-07-19T21:28:29.361Z,16.96
2018-07-19T21:33:38.478Z,16.82
2018-07-19T21:38:47.962Z,16.62
2018-07-19T21:43:57.354Z,16.52
2018-07-19T21:49:06.794Z,16.27
2018-07-19T21:54:16.287Z,16.22
2018-07-19T21:59:25.688Z,16.03
2018-07-19T22:04:34.276Z,15.83
2018-07-19T22:09:43.585Z,15.76
2018-07-19T22:14:52.278Z,15.70
2018-07-19T22:20:02.256Z,15.50
2018-07-19T22:25:10.992Z,15.43
2018-07-19T22:30:19.940Z,15.31
2018-07-19T22:35:29.240Z,15.17
2018-07-19T22:40:38.324Z,15.08
2018-07-19T22:45:46.878Z,14.94
2018-07-19T22:50:56.373Z,14.81
2018-07-19T22:56:06.581Z,14.74
2018-07-19T23:01:15.803Z,14.58
2018-07-19T23:06:24.847Z,14.52
2018-07-19T23:11:34.576Z,14.40
2018-07-19T23:16:43.715Z,14.33
2018-07-19T23:21:53.125Z,14.28
2018-07-19T23:27:02.126Z,14.17
2018-07-19T23:32:11.345Z,14.12
2018-07-19T23:37:20.689Z,14.04
2018-07-19T23:42:30.806Z,13.97
2018-07-19T23:47:41.548Z,13.82
2018-07-19T23:52:50.146Z,13.71
2018-07-19T23:57:58.833Z,13.61
